Airfield :
LOGIN :

Register | Disclaimer

   EN    FR    IT 

 










Legend :    VFR   Marginal VFR   IFR   Intensive IFR   Very Intensive IFR
Visi :
Ceiling :
>= 8 km
>= 3000ft
5 to 8 km
1000 to 3000 ft
1500m to 5 km
500 to 1000 ft
800 to 1500m
200 to 500 ft
< 800m
< 200 ft
Symbols :   Thunderstorms  Fog  Heavy snow  Heavy precipitations  Wind > 20 kt
SIGMETs :     Misc.  Thunderstorms  Icing  Turbulence  Mountain Waves  Volcanic Ashes







- Airport Elevation : 142 ft
- IATA code : ALC


LEAL - Alicante

CURRENT METAR :
  • 181600Z 08012KT CAVOK 15/10 Q1019 NOSIG

EXPIRED METARs :
  • 181530Z 08012KT CAVOK 15/09 Q1019 NOSIG
  • 181500Z 09012KT CAVOK 16/07 Q1019 NOSIG
  • 181430Z 10011KT 070V140 CAVOK 16/07 Q1020 NOSIG
  • 181400Z 09011KT 060V120 CAVOK 16/08 Q1020 NOSIG
  • 181330Z 09013KT CAVOK 16/06 Q1020 NOSIG

TAF TAF LEAL
Valid from the 18 at 12:00 until the 19 at 12:00 UTC


181100Z 1812/1912 07014KT 9999 FEW015 TX17/1812Z TN06/1907Z
BECMG 1820/1822 34007KT
No reported NOTAMs for that airfield.



MET'MAP, your aeronautical weather chart ! - Copyright ORBIFLY December 2007 - Disclaimer

ORBIFLY MET'MAP TEAM :

Programming & Development : Alexandra Zaïnal
Concept & Development : Baudouin d'Aumeries
Co-Development & Prog : Marc-Olivier Méhu
Technical & hardware support : Manuel Goepfert

Contact : metmap@orbifly.com




SOURCES & CREDITS :

   NOAA